sensor_id;sensor_type;location;lat;lon;timestamp;pressure;altitude;pressure_sealevel;temperature;humidity
52343;BME280;38277;51.972;4.624;2023-04-27T00:04:34;102320.0;;;6.3;67.5
52343;BME280;38277;51.972;4.624;2023-04-27T00:07:43;102330.0;;;6.3;67.5
52343;BME280;38277;51.972;4.624;2023-04-27T00:11:45;102330.0;;;6.2;67.5
52343;BME280;38277;51.972;4.624;2023-04-27T00:16:43;102330.0;;;6.1;68.0
52343;BME280;38277;51.972;4.624;2023-04-27T00:22:48;102330.0;;;6.1;68.0
52343;BME280;38277;51.972;4.624;2023-04-27T00:25:42;102330.0;;;6.1;68.5
52343;BME280;38277;51.972;4.624;2023-04-27T00:31:49;102330.0;;;6.1;68.5
52343;BME280;38277;51.972;4.624;2023-04-27T00:34:38;102320.0;;;6.0;68.5
52343;BME280;38277;51.972;4.624;2023-04-27T00:40:34;102320.0;;;6.0;68.5
52343;BME280;38277;51.972;4.624;2023-04-27T00:43:30;102310.0;;;5.9;69.0
52343;BME280;38277;51.972;4.624;2023-04-27T00:48:12;102310.0;;;5.9;68.5
52343;BME280;38277;51.972;4.624;2023-04-27T00:52:24;102310.0;;;5.8;68.5
52343;BME280;38277;51.972;4.624;2023-04-27T00:56:49;102310.0;;;5.8;69.0
52343;BME280;38277;51.972;4.624;2023-04-27T01:05:50;102300.0;;;5.7;69.0
52343;BME280;38277;51.972;4.624;2023-04-27T01:10:35;102310.0;;;5.6;69.0
52343;BME280;38277;51.972;4.624;2023-04-27T01:15:05;102300.0;;;5.6;69.5
52343;BME280;38277;51.972;4.624;2023-04-27T01:19:23;102300.0;;;5.6;69.5
52343;BME280;38277;51.972;4.624;2023-04-27T01:23:58;102290.0;;;5.6;69.5
52343;BME280;38277;51.972;4.624;2023-04-27T01:28:15;102290.0;;;5.5;69.5
52343;BME280;38277;51.972;4.624;2023-04-27T01:33:06;102290.0;;;5.5;70.0
52343;BME280;38277;51.972;4.624;2023-04-27T01:41:45;102280.0;;;5.5;70.0
52343;BME280;38277;51.972;4.624;2023-04-27T01:46:21;102290.0;;;5.5;70.0
52343;BME280;38277;51.972;4.624;2023-04-27T01:50:46;102290.0;;;5.4;70.5
52343;BME280;38277;51.972;4.624;2023-04-27T01:55:34;102280.0;;;5.3;70.5
52343;BME280;38277;51.972;4.624;2023-04-27T01:59:54;102290.0;;;5.2;70.5
52343;BME280;38277;51.972;4.624;2023-04-27T02:04:30;102290.0;;;5.2;70.5
52343;BME280;38277;51.972;4.624;2023-04-27T02:08:54;102290.0;;;5.2;71.0
52343;BME280;38277;51.972;4.624;2023-04-27T02:18:10;102270.0;;;5.1;71.5
52343;BME280;38277;51.972;4.624;2023-04-27T02:22:39;102270.0;;;5.2;71.5
52343;BME280;38277;51.972;4.624;2023-04-27T02:26:47;102270.0;;;5.2;72.0
52343;BME280;38277;51.972;4.624;2023-04-27T02:31:43;102270.0;;;5.2;72.0
52343;BME280;38277;51.972;4.624;2023-04-27T02:36:08;102270.0;;;5.1;72.0
52343;BME280;38277;51.972;4.624;2023-04-27T02:40:17;102260.0;;;5.1;72.5
52343;BME280;38277;51.972;4.624;2023-04-27T02:46:48;102270.0;;;5.0;72.5
52343;BME280;38277;51.972;4.624;2023-04-27T02:49:42;102260.0;;;5.0;73.0
52343;BME280;38277;51.972;4.624;2023-04-27T02:53:55;102270.0;;;5.0;73.5
52343;BME280;38277;51.972;4.624;2023-04-27T02:58:16;102270.0;;;4.9;73.5
52343;BME280;38277;51.972;4.624;2023-04-27T03:03:01;102270.0;;;4.9;73.5
52343;BME280;38277;51.972;4.624;2023-04-27T03:07:34;102280.0;;;4.9;74.0
52343;BME280;38277;51.972;4.624;2023-04-27T03:11:50;102280.0;;;4.9;74.0
52343;BME280;38277;51.972;4.624;2023-04-27T03:16:40;102280.0;;;4.8;74.5
52343;BME280;38277;51.972;4.624;2023-04-27T03:21:12;102270.0;;;4.8;74.5
52343;BME280;38277;51.972;4.624;2023-04-27T03:25:41;102280.0;;;4.8;74.5
52343;BME280;38277;51.972;4.624;2023-04-27T03:30:12;102280.0;;;4.8;74.5
52343;BME280;38277;51.972;4.624;2023-04-27T03:38:46;102280.0;;;4.8;74.5
52343;BME280;38277;51.972;4.624;2023-04-27T03:43:26;102270.0;;;4.8;74.5
52343;BME280;38277;51.972;4.624;2023-04-27T03:48:00;102290.0;;;4.8;74.5
52343;BME280;38277;51.972;4.624;2023-04-27T03:52:24;102290.0;;;4.7;74.5
52343;BME280;38277;51.972;4.624;2023-04-27T03:57:11;102290.0;;;4.7;74.0
52343;BME280;38277;51.972;4.624;2023-04-27T04:01:34;102290.0;;;4.6;74.0
52343;BME280;38277;51.972;4.624;2023-04-27T04:06:04;102290.0;;;4.6;74.5
52343;BME280;38277;51.972;4.624;2023-04-27T04:14:48;102310.0;;;4.4;74.0
52343;BME280;38277;51.972;4.624;2023-04-27T04:19:40;102310.0;;;4.3;74.0
52343;BME280;38277;51.972;4.624;2023-04-27T04:23:55;102310.0;;;4.3;74.5
52343;BME280;38277;51.972;4.624;2023-04-27T04:28:42;102310.0;;;4.3;74.5
52343;BME280;38277;51.972;4.624;2023-04-27T04:32:46;102310.0;;;4.3;74.5
52343;BME280;38277;51.972;4.624;2023-04-27T04:37:31;102320.0;;;4.3;75.0
52343;BME280;38277;51.972;4.624;2023-04-27T04:42:05;102320.0;;;4.3;74.5
52343;BME280;38277;51.972;4.624;2023-04-27T04:51:04;102330.0;;;4.4;75.0
52343;BME280;38277;51.972;4.624;2023-04-27T04:55:24;102330.0;;;4.5;75.0
52343;BME280;38277;51.972;4.624;2023-04-27T04:59:50;102320.0;;;4.5;75.0
52343;BME280;38277;51.972;4.624;2023-04-27T05:04:43;102330.0;;;4.6;75.0
52343;BME280;38277;51.972;4.624;2023-04-27T05:08:45;102330.0;;;4.6;75.0
52343;BME280;38277;51.972;4.624;2023-04-27T05:13:41;102330.0;;;4.7;75.0
52343;BME280;38277;51.972;4.624;2023-04-27T05:17:50;102340.0;;;4.7;75.0
52343;BME280;38277;51.972;4.624;2023-04-27T05:22:33;102330.0;;;4.8;75.0
52343;BME280;38277;51.972;4.624;2023-04-27T05:27:03;102330.0;;;4.9;75.0
52343;BME280;38277;51.972;4.624;2023-04-27T05:31:35;102330.0;;;5.0;75.0
52343;BME280;38277;51.972;4.624;2023-04-27T05:36:07;102330.0;;;5.0;75.5
52343;BME280;38277;51.972;4.624;2023-04-27T05:40:30;102330.0;;;5.1;75.5
52343;BME280;38277;51.972;4.624;2023-04-27T05:44:52;102330.0;;;5.3;75.0
52343;BME280;38277;51.972;4.624;2023-04-27T05:49:27;102340.0;;;5.4;75.0
52343;BME280;38277;51.972;4.624;2023-04-27T05:53:52;102340.0;;;5.5;75.0
52343;BME280;38277;51.972;4.624;2023-04-27T05:58:34;102340.0;;;5.6;74.5
52343;BME280;38277;51.972;4.624;2023-04-27T06:03:06;102350.0;;;5.7;74.5
52343;BME280;38277;51.972;4.624;2023-04-27T06:07:29;102340.0;;;5.8;74.5
52343;BME280;38277;51.972;4.624;2023-04-27T06:11:51;102350.0;;;5.9;74.5
52343;BME280;38277;51.972;4.624;2023-04-27T06:16:27;102340.0;;;6.1;74.0
52343;BME280;38277;51.972;4.624;2023-04-27T06:22:39;102350.0;;;6.2;74.0
52343;BME280;38277;51.972;4.624;2023-04-27T06:25:37;102350.0;;;6.4;73.5
52343;BME280;38277;51.972;4.624;2023-04-27T06:30:01;102350.0;;;6.5;73.0
52343;BME280;38277;51.972;4.624;2023-04-27T06:34:34;102340.0;;;6.7;71.5
52343;BME280;38277;51.972;4.624;2023-04-27T06:40:41;102330.0;;;6.8;70.5
52343;BME280;38277;51.972;4.624;2023-04-27T06:43:28;102320.0;;;7.0;70.0
52343;BME280;38277;51.972;4.624;2023-04-27T06:47:53;102330.0;;;7.1;69.5
52343;BME280;38277;51.972;4.624;2023-04-27T06:52:24;102330.0;;;7.3;69.5
52343;BME280;38277;51.972;4.624;2023-04-27T06:56:57;102340.0;;;7.5;69.0
52343;BME280;38277;51.972;4.624;2023-04-27T07:01:42;102340.0;;;7.6;68.0
52343;BME280;38277;51.972;4.624;2023-04-27T07:05:46;102340.0;;;7.8;65.5
52343;BME280;38277;51.972;4.624;2023-04-27T07:14:55;102350.0;;;8.1;63.5
52343;BME280;38277;51.972;4.624;2023-04-27T07:19:39;102330.0;;;8.2;62.5
52343;BME280;38277;51.972;4.624;2023-04-27T07:24:09;102330.0;;;8.5;60.5
52343;BME280;38277;51.972;4.624;2023-04-27T07:28:29;102330.0;;;8.6;58.5
52343;BME280;38277;51.972;4.624;2023-04-27T07:32:46;102340.0;;;8.8;59.0
52343;BME280;38277;51.972;4.624;2023-04-27T07:37:26;102330.0;;;9.0;59.5
52343;BME280;38277;51.972;4.624;2023-04-27T07:42:06;102330.0;;;9.3;59.5
52343;BME280;38277;51.972;4.624;2023-04-27T07:50:46;102330.0;;;9.8;58.5
52343;BME280;38277;51.972;4.624;2023-04-27T07:55:34;102320.0;;;10.1;56.0
52343;BME280;38277;51.972;4.624;2023-04-27T08:04:29;102330.0;;;10.4;54.0
52343;BME280;38277;51.972;4.624;2023-04-27T08:08:55;102330.0;;;10.4;54.0
52343;BME280;38277;51.972;4.624;2023-04-27T08:13:40;102320.0;;;10.6;54.0
52343;BME280;38277;51.972;4.624;2023-04-27T08:17:51;102300.0;;;10.7;53.0
52343;BME280;38277;51.972;4.624;2023-04-27T08:26:56;102300.0;;;11.0;53.0
52343;BME280;38277;51.972;4.624;2023-04-27T08:31:22;102310.0;;;11.2;53.5
52343;BME280;38277;51.972;4.624;2023-04-27T08:36:04;102310.0;;;11.5;52.0
52343;BME280;38277;51.972;4.624;2023-04-27T08:40:41;102310.0;;;11.7;51.0
52343;BME280;38277;51.972;4.624;2023-04-27T08:44:54;102310.0;;;11.9;50.5
52343;BME280;38277;51.972;4.624;2023-04-27T08:49:39;102310.0;;;12.2;50.0
52343;BME280;38277;51.972;4.624;2023-04-27T08:54:05;102300.0;;;12.3;50.0
52343;BME280;38277;51.972;4.624;2023-04-27T09:02:48;102300.0;;;12.6;49.0
52343;BME280;38277;51.972;4.624;2023-04-27T09:07:33;102290.0;;;12.8;48.5
52343;BME280;38277;51.972;4.624;2023-04-27T09:11:53;102290.0;;;13.1;47.0
52343;BME280;38277;51.972;4.624;2023-04-27T09:16:39;102290.0;;;13.3;46.0
52343;BME280;38277;51.972;4.624;2023-04-27T09:21:03;102280.0;;;13.5;45.5
52343;BME280;38277;51.972;4.624;2023-04-27T09:25:22;102290.0;;;13.6;44.5
52343;BME280;38277;51.972;4.624;2023-04-27T09:30:11;102290.0;;;13.8;44.5
52343;BME280;38277;51.972;4.624;2023-04-27T09:39:08;102290.0;;;14.3;43.0
52343;BME280;38277;51.972;4.624;2023-04-27T09:43:38;102290.0;;;14.3;42.0
52343;BME280;38277;51.972;4.624;2023-04-27T09:47:59;102290.0;;;14.2;42.5
52343;BME280;38277;51.972;4.624;2023-04-27T09:52:32;102300.0;;;14.4;41.5
52343;BME280;38277;51.972;4.624;2023-04-27T09:57:28;102280.0;;;14.5;41.5
52343;BME280;38277;51.972;4.624;2023-04-27T10:02:05;102290.0;;;14.6;41.5
52343;BME280;38277;51.972;4.624;2023-04-27T10:07:06;102290.0;;;14.8;42.0
52343;BME280;38277;51.972;4.624;2023-04-27T10:15:10;102280.0;;;15.0;39.0
52343;BME280;38277;51.972;4.624;2023-04-27T10:19:22;102280.0;;;14.9;40.0
52343;BME280;38277;51.972;4.624;2023-04-27T10:24:08;102270.0;;;15.1;39.5
52343;BME280;38277;51.972;4.624;2023-04-27T10:28:37;102270.0;;;15.5;38.5
52343;BME280;38277;51.972;4.624;2023-04-27T10:33:08;102270.0;;;16.0;38.0
52343;BME280;38277;51.972;4.624;2023-04-27T10:37:18;102260.0;;;16.6;36.0
52343;BME280;38277;51.972;4.624;2023-04-27T10:42:00;102250.0;;;17.1;35.0
52343;BME280;38277;51.972;4.624;2023-04-27T10:50:50;102240.0;;;18.4;33.0
52343;BME280;38277;51.972;4.624;2023-04-27T10:55:42;102240.0;;;18.8;32.0
52343;BME280;38277;51.972;4.624;2023-04-27T10:59:52;102240.0;;;19.3;30.5
52343;BME280;38277;51.972;4.624;2023-04-27T11:08:44;102220.0;;;20.6;28.5
52343;BME280;38277;51.972;4.624;2023-04-27T11:13:30;102220.0;;;21.4;27.5
52343;BME280;38277;51.972;4.624;2023-04-27T11:18:03;102220.0;;;22.4;26.5
52343;BME280;38277;51.972;4.624;2023-04-27T11:27:07;102210.0;;;24.1;23.0
52343;BME280;38277;51.972;4.624;2023-04-27T11:31:41;102200.0;;;24.6;21.5
52343;BME280;38277;51.972;4.624;2023-04-27T11:36:15;102190.0;;;25.0;22.0
52343;BME280;38277;51.972;4.624;2023-04-27T11:40:42;102180.0;;;25.8;21.0
52343;BME280;38277;51.972;4.624;2023-04-27T11:44:51;102180.0;;;26.2;21.0
52343;BME280;38277;51.972;4.624;2023-04-27T11:49:36;102190.0;;;26.7;19.5
52343;BME280;38277;51.972;4.624;2023-04-27T11:54:00;102190.0;;;26.8;19.0
52343;BME280;38277;51.972;4.624;2023-04-27T12:02:45;102170.0;;;28.0;18.5
52343;BME280;38277;51.972;4.624;2023-04-27T12:07:27;102170.0;;;28.4;17.0
52343;BME280;38277;51.972;4.624;2023-04-27T12:12:08;102170.0;;;28.2;17.0
52343;BME280;38277;51.972;4.624;2023-04-27T12:16:25;102160.0;;;27.6;17.5
52343;BME280;38277;51.972;4.624;2023-04-27T12:21:13;102160.0;;;27.1;18.5
52343;BME280;38277;51.972;4.624;2023-04-27T12:25:32;102170.0;;;26.7;19.0
52343;BME280;38277;51.972;4.624;2023-04-27T12:29:53;102160.0;;;26.7;19.0
52343;BME280;38277;51.972;4.624;2023-04-27T12:38:45;102140.0;;;27.4;18.5
52343;BME280;38277;51.972;4.624;2023-04-27T12:43:38;102140.0;;;27.1;19.0
52343;BME280;38277;51.972;4.624;2023-04-27T12:48:00;102150.0;;;26.9;18.5
52343;BME280;38277;51.972;4.624;2023-04-27T12:52:32;102140.0;;;26.3;18.5
52343;BME280;38277;51.972;4.624;2023-04-27T12:57:02;102130.0;;;26.2;19.5
52343;BME280;38277;51.972;4.624;2023-04-27T13:01:20;102140.0;;;26.2;19.5
52343;BME280;38277;51.972;4.624;2023-04-27T13:06:09;102140.0;;;26.0;19.0
52343;BME280;38277;51.972;4.624;2023-04-27T13:15:07;102120.0;;;25.1;19.5
52343;BME280;38277;51.972;4.624;2023-04-27T13:19:32;102120.0;;;24.9;20.5
52343;BME280;38277;51.972;4.624;2023-04-27T13:23:46;102130.0;;;25.2;20.0
52343;BME280;38277;51.972;4.624;2023-04-27T13:28:43;102110.0;;;25.4;20.0
52343;BME280;38277;51.972;4.624;2023-04-27T13:32:44;102110.0;;;25.3;20.5
52343;BME280;38277;51.972;4.624;2023-04-27T13:37:41;102120.0;;;24.9;21.0
52343;BME280;38277;51.972;4.624;2023-04-27T13:42:00;102110.0;;;24.5;20.5
52343;BME280;38277;51.972;4.624;2023-04-27T13:51:06;102080.0;;;23.4;21.5
52343;BME280;38277;51.972;4.624;2023-04-27T13:55:25;102080.0;;;23.0;22.5
52343;BME280;38277;51.972;4.624;2023-04-27T14:00:12;102070.0;;;22.2;23.0
52343;BME280;38277;51.972;4.624;2023-04-27T14:04:33;102070.0;;;21.7;24.0
52343;BME280;38277;51.972;4.624;2023-04-27T14:09:08;102060.0;;;21.2;24.0
52343;BME280;38277;51.972;4.624;2023-04-27T14:13:25;102050.0;;;20.9;25.0
52343;BME280;38277;51.972;4.624;2023-04-27T14:18:02;102050.0;;;20.7;24.5
52343;BME280;38277;51.972;4.624;2023-04-27T14:31:42;102040.0;;;22.2;24.0
52343;BME280;38277;51.972;4.624;2023-04-27T14:35:51;102040.0;;;23.6;22.0
52343;BME280;38277;51.972;4.624;2023-04-27T14:40:42;102040.0;;;25.1;21.5
52343;BME280;38277;51.972;4.624;2023-04-27T14:44:50;102030.0;;;26.3;20.0
52343;BME280;38277;51.972;4.624;2023-04-27T14:49:17;102000.0;;;27.3;19.5
52343;BME280;38277;51.972;4.624;2023-04-27T14:54:05;102000.0;;;27.4;19.0
52343;BME280;38277;51.972;4.624;2023-04-27T15:03:01;102020.0;;;25.7;20.5
52343;BME280;38277;51.972;4.624;2023-04-27T15:07:19;102010.0;;;25.4;21.0
52343;BME280;38277;51.972;4.624;2023-04-27T15:12:13;102020.0;;;25.4;20.5
52343;BME280;38277;51.972;4.624;2023-04-27T15:16:43;102010.0;;;25.6;20.0
52343;BME280;38277;51.972;4.624;2023-04-27T15:20:52;102000.0;;;25.9;20.0
52343;BME280;38277;51.972;4.624;2023-04-27T15:25:24;101990.0;;;26.2;20.0
52343;BME280;38277;51.972;4.624;2023-04-27T15:30:07;101980.0;;;26.1;19.5
52343;BME280;38277;51.972;4.624;2023-04-27T15:39:07;101970.0;;;24.4;21.0
52343;BME280;38277;51.972;4.624;2023-04-27T15:43:39;101960.0;;;24.1;22.0
52343;BME280;38277;51.972;4.624;2023-04-27T15:52:16;101950.0;;;24.5;22.0
52343;BME280;38277;51.972;4.624;2023-04-27T15:56:58;101940.0;;;24.4;21.5
52343;BME280;38277;51.972;4.624;2023-04-27T16:01:20;101940.0;;;24.6;22.0
52343;BME280;38277;51.972;4.624;2023-04-27T16:05:55;101930.0;;;24.9;21.5
52343;BME280;38277;51.972;4.624;2023-04-27T16:14:45;101920.0;;;23.4;22.0
52343;BME280;38277;51.972;4.624;2023-04-27T16:19:35;101920.0;;;22.4;23.0
52343;BME280;38277;51.972;4.624;2023-04-27T16:23:45;101920.0;;;21.3;24.0
52343;BME280;38277;51.972;4.624;2023-04-27T16:28:41;101900.0;;;20.2;25.5
52343;BME280;38277;51.972;4.624;2023-04-27T16:33:12;101910.0;;;19.4;27.0
52343;BME280;38277;51.972;4.624;2023-04-27T16:37:22;101900.0;;;18.8;28.0
52343;BME280;38277;51.972;4.624;2023-04-27T16:41:50;101900.0;;;18.2;29.0
52343;BME280;38277;51.972;4.624;2023-04-27T16:55:25;101900.0;;;17.1;31.0
52343;BME280;38277;51.972;4.624;2023-04-27T17:00:00;101900.0;;;16.7;31.5
52343;BME280;38277;51.972;4.624;2023-04-27T17:08:58;101890.0;;;16.4;33.0
52343;BME280;38277;51.972;4.624;2023-04-27T17:13:40;101900.0;;;16.3;34.0
52343;BME280;38277;51.972;4.624;2023-04-27T17:17:51;101890.0;;;16.1;34.0
52343;BME280;38277;51.972;4.624;2023-04-27T17:26:48;101890.0;;;15.7;35.0
52343;BME280;38277;51.972;4.624;2023-04-27T17:31:19;101890.0;;;15.5;35.0
52343;BME280;38277;51.972;4.624;2023-04-27T17:35:47;101890.0;;;15.3;35.5
52343;BME280;38277;51.972;4.624;2023-04-27T17:40:31;101880.0;;;15.2;35.5
52343;BME280;38277;51.972;4.624;2023-04-27T17:44:50;101880.0;;;15.0;36.5
52343;BME280;38277;51.972;4.624;2023-04-27T17:54:13;101880.0;;;14.7;37.0
52343;BME280;38277;51.972;4.624;2023-04-27T18:03:13;101870.0;;;14.4;38.0
52343;BME280;38277;51.972;4.624;2023-04-27T18:07:41;101870.0;;;14.3;38.5
52343;BME280;38277;51.972;4.624;2023-04-27T18:16:25;101860.0;;;14.1;39.0
52343;BME280;38277;51.972;4.624;2023-04-27T18:21:08;101860.0;;;14.1;40.0
52343;BME280;38277;51.972;4.624;2023-04-27T18:25:21;101860.0;;;14.0;40.0
52343;BME280;38277;51.972;4.624;2023-04-27T18:30:00;101860.0;;;13.9;40.0
52343;BME280;38277;51.972;4.624;2023-04-27T18:39:07;101860.0;;;13.8;41.0
52343;BME280;38277;51.972;4.624;2023-04-27T18:43:29;101860.0;;;13.8;41.0
52343;BME280;38277;51.972;4.624;2023-04-27T18:47:46;101850.0;;;13.7;41.5
52343;BME280;38277;51.972;4.624;2023-04-27T18:57:04;101850.0;;;13.5;42.0
52343;BME280;38277;51.972;4.624;2023-04-27T19:06:06;101850.0;;;13.4;42.0
52343;BME280;38277;51.972;4.624;2023-04-27T19:15:00;101850.0;;;13.3;42.5
52343;BME280;38277;51.972;4.624;2023-04-27T19:20:13;101850.0;;;13.2;43.0
52343;BME280;38277;51.972;4.624;2023-04-27T19:25:26;101850.0;;;13.1;43.0
52343;BME280;38277;51.972;4.624;2023-04-27T19:37:30;101860.0;;;13.0;43.0
52343;BME280;38277;51.972;4.624;2023-04-27T19:43:32;101850.0;;;12.9;43.5
52343;BME280;38277;51.972;4.624;2023-04-27T19:52:35;101840.0;;;12.8;44.0
52343;BME280;38277;51.972;4.624;2023-04-27T20:01:38;101830.0;;;12.8;44.5
52343;BME280;38277;51.972;4.624;2023-04-27T20:10:42;101830.0;;;12.7;45.0
52343;BME280;38277;51.972;4.624;2023-04-27T20:25:47;101830.0;;;12.6;45.5
52343;BME280;38277;51.972;4.624;2023-04-27T20:28:48;101820.0;;;12.6;46.0
52343;BME280;38277;51.972;4.624;2023-04-27T20:37:51;101800.0;;;12.5;46.5
52343;BME280;38277;51.972;4.624;2023-04-27T20:52:56;101780.0;;;12.4;46.5
52343;BME280;38277;51.972;4.624;2023-04-27T20:55:57;101750.0;;;12.3;46.5
52343;BME280;38277;51.972;4.624;2023-04-27T21:05:00;101730.0;;;12.2;47.0
52343;BME280;38277;51.972;4.624;2023-04-27T21:14:03;101730.0;;;12.2;47.0
52343;BME280;38277;51.972;4.624;2023-04-27T21:23:07;101730.0;;;12.1;47.0
52343;BME280;38277;51.972;4.624;2023-04-27T21:29:09;101720.0;;;12.1;46.5
52343;BME280;38277;51.972;4.624;2023-04-27T21:32:10;101700.0;;;12.1;46.5
52343;BME280;38277;51.972;4.624;2023-04-27T21:39:02;101690.0;;;12.1;47.0
52343;BME280;38277;51.972;4.624;2023-04-27T21:45:04;101690.0;;;12.1;47.0
52343;BME280;38277;51.972;4.624;2023-04-27T21:52:34;101690.0;;;12.0;47.5
52343;BME280;38277;51.972;4.624;2023-04-27T21:58:36;101690.0;;;12.0;47.5
52343;BME280;38277;51.972;4.624;2023-04-27T22:05:48;101690.0;;;12.0;47.5
52343;BME280;38277;51.972;4.624;2023-04-27T22:11:50;101690.0;;;12.0;47.5
52343;BME280;38277;51.972;4.624;2023-04-27T22:19:41;101680.0;;;12.0;47.5
52343;BME280;38277;51.972;4.624;2023-04-27T22:25:43;101660.0;;;12.0;47.5
52343;BME280;38277;51.972;4.624;2023-04-27T22:32:45;101620.0;;;11.9;48.0
52343;BME280;38277;51.972;4.624;2023-04-27T22:38:48;101610.0;;;11.9;48.0
52343;BME280;38277;51.972;4.624;2023-04-27T22:44:49;101600.0;;;11.8;48.0
52343;BME280;38277;51.972;4.624;2023-04-27T22:56:56;101610.0;;;11.8;48.0
52343;BME280;38277;51.972;4.624;2023-04-27T23:04:39;101610.0;;;11.8;48.5
52343;BME280;38277;51.972;4.624;2023-04-27T23:10:41;101600.0;;;11.8;48.5
52343;BME280;38277;51.972;4.624;2023-04-27T23:17:58;101610.0;;;11.8;48.5
52343;BME280;38277;51.972;4.624;2023-04-27T23:24:00;101610.0;;;11.8;49.0
52343;BME280;38277;51.972;4.624;2023-04-27T23:31:31;101610.0;;;11.8;49.0
52343;BME280;38277;51.972;4.624;2023-04-27T23:37:34;101600.0;;;11.8;49.5
52343;BME280;38277;51.972;4.624;2023-04-27T23:44:51;101600.0;;;11.7;51.5
52343;BME280;38277;51.972;4.624;2023-04-27T23:50:57;101580.0;;;11.7;52.0
52343;BME280;38277;51.972;4.624;2023-04-27T23:56:55;101570.0;;;11.6;52.5
